Burgtor — V2OR7 — position and weather

sailwx.info

Track history (hours):
 
Tides and Currents Weather Stations Pressure Air Temp Water Temp Dewpoint Dewpoint Depression Visibility Wind Speed Wind Dir Waves Ship Positions

Burgtor

Last reported at 2014-Jul-29 20:09 UTC. Time now 2014-Jul-30 03:00 UTC.
Position N 45°58' W 002°52'.

Length 87 m; draft 3.6 m.

Type: Cargo ship. MMSI: 304665000.

Date/timePositionNaut miles runAvg speedWind from/ knotsBaromVisibWave heightAir tempDewpointWater temp
2014-Jul-29 20:09N 45°58' W 002°52'19 9.8
2014-Jul-29 18:15N 46°16' W 002°58'8 9.9
2014-Jul-29 17:29N 46°24' W 003°00'9 9.6
2014-Jul-29 16:32N 46°33' W 003°04'49 9.8
2014-Jul-29 11:33N 47°20' W 003°20'1010.0
2014-Jul-29 10:33N 47°30' W 003°22'1010.1
2014-Jul-29 09:33N 47°40' W 003°22'4 3.5
2014-Jul-29 08:29N 47°44' W 003°21'0 0.0
2014-Jul-29 07:32N 47°44' W 003°21'0 0.0
2014-Jul-29 06:32N 47°44' W 003°21'0 0.0
2014-Jul-29 05:32N 47°44' W 003°21'0 0.0
2014-Jul-29 04:32N 47°44' W 003°21'0 0.0
2014-Jul-29 03:32N 47°44' W 003°21'0 0.0
2014-Jul-29 02:32N 47°44' W 003°21'0 0.0
2014-Jul-29 01:32N 47°44' W 003°21'0 0.0
2014-Jul-29 00:32N 47°44' W 003°21'0 0.0
2014-Jul-28 23:32N 47°44' W 003°21'0 0.0
2014-Jul-28 22:32N 47°44' W 003°21'0 0.0
2014-Jul-28 21:32N 47°44' W 003°21'0 0.0
2014-Jul-28 20:32N 47°44' W 003°21'0 0.0
2014-Jul-28 19:32N 47°44' W 003°21'0 0.0
2014-Jul-28 18:32N 47°44' W 003°21'0 0.0
2014-Jul-28 17:31N 47°44' W 003°21'0 0.0
2014-Jul-28 16:31N 47°44' W 003°21'0 0.0
2014-Jul-28 15:31N 47°44' W 003°21'0 0.0
2014-Jul-28 14:31N 47°44' W 003°21'0 0.0
2014-Jul-28 13:31N 47°44' W 003°21'0 0.0
2014-Jul-28 12:31N 47°44' W 003°21'0 0.0
2014-Jul-28 11:31N 47°44' W 003°21'0 0.0
2014-Jul-28 10:31N 47°44' W 003°21'0 0.0
2014-Jul-28 09:31N 47°44' W 003°21'0 0.0
2014-Jul-28 08:28N 47°44' W 003°21'0 0.0
2014-Jul-28 07:31N 47°44' W 003°21'0 0.0
2014-Jul-28 06:31N 47°44' W 003°21'0 0.0
2014-Jul-28 05:31N 47°44' W 003°21'0 0.0
2014-Jul-28 04:31N 47°44' W 003°21'0 0.0
2014-Jul-28 03:28N 47°44' W 003°21'0 0.0
2014-Jul-28 02:31N 47°44' W 003°21'0 0.0
2014-Jul-28 01:31N 47°44' W 003°21'0 0.0
2014-Jul-28 00:31N 47°44' W 003°21'0 0.0
2014-Jul-27 23:31N 47°44' W 003°21'0 0.0
2014-Jul-27 22:31N 47°44' W 003°21'0 0.0
2014-Jul-27 21:31N 47°44' W 003°21'0 0.0
2014-Jul-27 20:31N 47°44' W 003°21'0 0.0
2014-Jul-27 19:31N 47°44' W 003°21'0 0.0
2014-Jul-27 18:31N 47°44' W 003°21'0 0.0
2014-Jul-27 17:31N 47°44' W 003°21'0 0.0
2014-Jul-27 16:28N 47°44' W 003°21'0 0.0
2014-Jul-27 15:31N 47°44' W 003°21'0 0.0
2014-Jul-27 14:31N 47°44' W 003°21'0 0.0
2014-Jul-27 13:31N 47°44' W 003°21'0 0.0
2014-Jul-27 12:31N 47°44' W 003°21'0 0.0
2014-Jul-27 11:31N 47°44' W 003°21'0 0.0
2014-Jul-27 10:31N 47°44' W 003°21'0 0.0
2014-Jul-27 09:31N 47°44' W 003°21'0 0.0
2014-Jul-27 08:31N 47°44' W 003°21'0 0.0
2014-Jul-27 07:34N 47°44' W 003°21'0 0.0
2014-Jul-27 06:33N 47°44' W 003°21'0 0.0
2014-Jul-27 05:33N 47°44' W 003°21'0 0.0
2014-Jul-27 04:33N 47°44' W 003°21'0 0.0
2014-Jul-27 03:33N 47°44' W 003°21'0 0.0
2014-Jul-27 02:33N 47°44' W 003°21'0 0.0
2014-Jul-27 01:30N 47°44' W 003°21'0 0.0
2014-Jul-27 00:33N 47°44' W 003°21'0 0.0
2014-Jul-26 23:33N 47°44' W 003°21'0 0.0
2014-Jul-26 22:33N 47°44' W 003°21'0 0.0
2014-Jul-26 21:33N 47°44' W 003°21'0 0.0
2014-Jul-26 20:33N 47°44' W 003°21'0 0.0
2014-Jul-26 19:33N 47°44' W 003°21'0 0.0
2014-Jul-26 18:33N 47°44' W 003°21'0 0.0
2014-Jul-26 17:33N 47°44' W 003°21'0 0.0
2014-Jul-26 16:33N 47°44' W 003°21'0 0.0
2014-Jul-26 15:33N 47°44' W 003°21'0 0.0
2014-Jul-26 14:33N 47°44' W 003°21'0 0.0
2014-Jul-26 13:33N 47°44' W 003°21'0 0.0
2014-Jul-26 12:33N 47°44' W 003°21'0 0.0
2014-Jul-26 11:33N 47°44' W 003°21'0 0.0
2014-Jul-26 10:33N 47°44' W 003°21'0 0.0
2014-Jul-26 09:33N 47°44' W 003°21'0 0.0
2014-Jul-26 08:33N 47°44' W 003°21'0 0.0
2014-Jul-26 07:33N 47°44' W 003°21'0 0.0
2014-Jul-26 06:33N 47°44' W 003°21'0 0.0
2014-Jul-26 05:33N 47°44' W 003°21'0 0.0
2014-Jul-26 04:33N 47°44' W 003°21'0 0.0
2014-Jul-26 03:33N 47°44' W 003°21'0 0.0
2014-Jul-26 02:33N 47°44' W 003°21'0 0.0
2014-Jul-26 01:33N 47°44' W 003°21'0 0.0
2014-Jul-26 00:33N 47°44' W 003°21'0 0.0
2014-Jul-25 23:33N 47°44' W 003°21'0 0.0
2014-Jul-25 22:33N 47°44' W 003°21'0 0.0
2014-Jul-25 21:33N 47°44' W 003°21'0 0.0
2014-Jul-25 20:33N 47°44' W 003°21'0 0.0
2014-Jul-25 19:33N 47°44' W 003°21'0 0.0
2014-Jul-25 18:32N 47°44' W 003°21'0 0.0
2014-Jul-25 17:32N 47°44' W 003°21'0 0.0
2014-Jul-25 16:32N 47°44' W 003°21'0 0.0
2014-Jul-25 15:32N 47°44' W 003°21'0 0.4
2014-Jul-25 14:33N 47°44' W 003°22'7 6.9
2014-Jul-25 13:33N 47°40' W 003°30'15 7.3
2014-Jul-25 11:33N 47°35' W 003°50'36 7.2
2014-Jul-25 06:32N 47°46' W 004°41'7 6.7
2014-Jul-25 05:32N 47°49' W 004°50'7 7.3
2014-Jul-25 04:33N 47°52' W 004°60'261 8.3
2014-Jul-23 21:18N 50°34' E 000°13'7 9.3
2014-Jul-23 20:33N 50°37' E 000°23'9 8.9
2014-Jul-23 19:33N 50°40' E 000°36'9 9.1
2014-Jul-23 18:33N 50°45' E 000°48'2610.6
2014-Jul-23 16:08N 51°01' E 001°20'711.7
2014-Jul-23 15:33N 51°05' E 001°29'1111.2
2014-Jul-23 14:33N 51°12' E 001°42'10 9.8
2014-Jul-23 13:33N 51°20' E 001°52'9 8.8
2014-Jul-23 12:33N 51°27' E 001°60'8 8.3
2014-Jul-23 11:33N 51°33' E 002°08'8 8.3
2014-Jul-23 10:32N 51°40' E 002°18'40 9.1
2014-Jul-23 06:08N 52°02' E 003°11'1010.1
2014-Jul-23 05:10N 52°02' E 003°27'610.0
2014-Jul-23 04:33N 52°03' E 003°37'9 8.8
2014-Jul-23 03:33N 52°02' E 003°52'8 8.5
2014-Jul-23 02:33N 51°59' E 004°04'5 5.1
2014-Jul-23 01:32N 51°56' E 004°11'0 0.0
2014-Jul-23 00:32N 51°56' E 004°11'0 0.0
2014-Jul-22 23:29N 51°56' E 004°11'0 0.0
2014-Jul-22 22:32N 51°56' E 004°11'0 0.1
2014-Jul-22 21:26N 51°56' E 004°11'0 0.0
2014-Jul-22 15:05N 51°56' E 004°11'0 0.0
2014-Jul-22 14:20N 51°56' E 004°11'0 0.0
2014-Jul-22 13:29N 51°56' E 004°11'0 0.0
2014-Jul-22 12:23N 51°56' E 004°11'0 0.0
2014-Jul-22 11:32N 51°56' E 004°11'0 0.0
2014-Jul-22 10:29N 51°56' E 004°11'0 0.0
2014-Jul-22 09:29N 51°56' E 004°11'0 0.0
2014-Jul-22 08:32N 51°56' E 004°11'0 0.0
2014-Jul-22 07:20N 51°56' E 004°11'0 0.0
2014-Jul-22 06:20N 51°56' E 004°11'0 0.0
2014-Jul-22 05:32N 51°56' E 004°11'0 0.0
2014-Jul-22 04:26N 51°56' E 004°11'0 0.0
2014-Jul-22 03:28N 51°56' E 004°11'0 0.0
2014-Jul-22 02:25N 51°56' E 004°11'0 0.0
2014-Jul-22 01:19N 51°56' E 004°11'0 0.0
2014-Jul-22 00:31N 51°56' E 004°11'0 0.0
2014-Jul-21 23:31N 51°56' E 004°11'0 0.0
2014-Jul-21 22:31N 51°56' E 004°11'0 0.0
2014-Jul-21 21:13N 51°56' E 004°11'0 0.0
2014-Jul-21 19:31N 51°56' E 004°11'0 0.0
2014-Jul-21 18:16N 51°56' E 004°11'0 0.0
2014-Jul-21 17:04N 51°56' E 004°11'0 0.0
2014-Jul-21 08:28N 51°56' E 004°11'0 0.0
2014-Jul-21 07:10N 51°56' E 004°11'0 0.0
2014-Jul-21 06:10N 51°56' E 004°11'0 0.0
2014-Jul-21 05:31N 51°56' E 004°11'0 0.0
2014-Jul-21 04:07N 51°56' E 004°11'0 0.0
2014-Jul-21 03:22N 51°56' E 004°11'0 0.0
2014-Jul-21 02:22N 51°56' E 004°11'0 0.0
2014-Jul-21 01:04N 51°56' E 004°11'0 0.0
2014-Jul-21 00:22N 51°56' E 004°11'0 0.0
2014-Jul-20 22:16N 51°56' E 004°11'0 0.0
2014-Jul-20 18:31N 51°56' E 004°11'0 0.0
2014-Jul-20 17:24N 51°56' E 004°11'0 0.0
2014-Jul-20 14:18N 51°56' E 004°11'0 0.0
2014-Jul-20 13:15N 51°56' E 004°11'0 0.0
2014-Jul-20 12:03N 51°56' E 004°11'0 0.0
2014-Jul-20 11:03N 51°56' E 004°11'0 0.0
2014-Jul-20 10:27N 51°56' E 004°11'0 0.0
2014-Jul-20 09:06N 51°56' E 004°11'0 0.0
2014-Jul-20 07:18N 51°56' E 004°11'0 0.0
2014-Jul-20 06:33N 51°56' E 004°11'0 0.0
2014-Jul-20 05:30N 51°56' E 004°11'0 0.0
2014-Jul-20 04:24N 51°56' E 004°11'0 0.0
2014-Jul-20 02:27N 51°56' E 004°11'0 0.0
2014-Jul-20 01:30N 51°56' E 004°11'0 0.0
2014-Jul-20 00:27N 51°56' E 004°11'0 0.0
2014-Jul-19 22:30N 51°56' E 004°11'  
Track history (hours):
 
Tides and Currents Weather Stations Pressure Air Temp Water Temp Dewpoint Dewpoint Depression Visibility Wind Speed Wind Dir Waves Ship Positions

Burgtor

Last reported at 2014-Jul-29 20:09 UTC. Time now 2014-Jul-30 03:00 UTC.
Position N 45°58' W 002°52'.

Length 87 m; draft 3.6 m.

Type: Cargo ship. MMSI: 304665000.

Date/timePositionNaut miles runAvg speedWind from/ knotsBaromVisibWave heightAir tempDewpointWater temp
2014-Jul-29 20:09N 45°58' W 002°52'19 9.8
2014-Jul-29 18:15N 46°16' W 002°58'8 9.9
2014-Jul-29 17:29N 46°24' W 003°00'9 9.6
2014-Jul-29 16:32N 46°33' W 003°04'49 9.8
2014-Jul-29 11:33N 47°20' W 003°20'1010.0
2014-Jul-29 10:33N 47°30' W 003°22'1010.1
2014-Jul-29 09:33N 47°40' W 003°22'4 3.5
2014-Jul-29 08:29N 47°44' W 003°21'0 0.0
2014-Jul-29 07:32N 47°44' W 003°21'0 0.0
2014-Jul-29 06:32N 47°44' W 003°21'0 0.0
2014-Jul-29 05:32N 47°44' W 003°21'0 0.0
2014-Jul-29 04:32N 47°44' W 003°21'0 0.0
2014-Jul-29 03:32N 47°44' W 003°21'0 0.0
2014-Jul-29 02:32N 47°44' W 003°21'0 0.0
2014-Jul-29 01:32N 47°44' W 003°21'0 0.0
2014-Jul-29 00:32N 47°44' W 003°21'0 0.0
2014-Jul-28 23:32N 47°44' W 003°21'0 0.0
2014-Jul-28 22:32N 47°44' W 003°21'0 0.0
2014-Jul-28 21:32N 47°44' W 003°21'0 0.0
2014-Jul-28 20:32N 47°44' W 003°21'0 0.0
2014-Jul-28 19:32N 47°44' W 003°21'0 0.0
2014-Jul-28 18:32N 47°44' W 003°21'0 0.0
2014-Jul-28 17:31N 47°44' W 003°21'0 0.0
2014-Jul-28 16:31N 47°44' W 003°21'0 0.0
2014-Jul-28 15:31N 47°44' W 003°21'0 0.0
2014-Jul-28 14:31N 47°44' W 003°21'0 0.0
2014-Jul-28 13:31N 47°44' W 003°21'0 0.0
2014-Jul-28 12:31N 47°44' W 003°21'0 0.0
2014-Jul-28 11:31N 47°44' W 003°21'0 0.0
2014-Jul-28 10:31N 47°44' W 003°21'0 0.0
2014-Jul-28 09:31N 47°44' W 003°21'0 0.0
2014-Jul-28 08:28N 47°44' W 003°21'0 0.0
2014-Jul-28 07:31N 47°44' W 003°21'0 0.0
2014-Jul-28 06:31N 47°44' W 003°21'0 0.0
2014-Jul-28 05:31N 47°44' W 003°21'0 0.0
2014-Jul-28 04:31N 47°44' W 003°21'0 0.0
2014-Jul-28 03:28N 47°44' W 003°21'0 0.0
2014-Jul-28 02:31N 47°44' W 003°21'0 0.0
2014-Jul-28 01:31N 47°44' W 003°21'0 0.0
2014-Jul-28 00:31N 47°44' W 003°21'0 0.0
2014-Jul-27 23:31N 47°44' W 003°21'0 0.0
2014-Jul-27 22:31N 47°44' W 003°21'0 0.0
2014-Jul-27 21:31N 47°44' W 003°21'0 0.0
2014-Jul-27 20:31N 47°44' W 003°21'0 0.0
2014-Jul-27 19:31N 47°44' W 003°21'0 0.0
2014-Jul-27 18:31N 47°44' W 003°21'0 0.0
2014-Jul-27 17:31N 47°44' W 003°21'0 0.0
2014-Jul-27 16:28N 47°44' W 003°21'0 0.0
2014-Jul-27 15:31N 47°44' W 003°21'0 0.0
2014-Jul-27 14:31N 47°44' W 003°21'0 0.0
2014-Jul-27 13:31N 47°44' W 003°21'0 0.0
2014-Jul-27 12:31N 47°44' W 003°21'0 0.0
2014-Jul-27 11:31N 47°44' W 003°21'0 0.0
2014-Jul-27 10:31N 47°44' W 003°21'0 0.0
2014-Jul-27 09:31N 47°44' W 003°21'0 0.0
2014-Jul-27 08:31N 47°44' W 003°21'0 0.0
2014-Jul-27 07:34N 47°44' W 003°21'0 0.0
2014-Jul-27 06:33N 47°44' W 003°21'0 0.0
2014-Jul-27 05:33N 47°44' W 003°21'0 0.0
2014-Jul-27 04:33N 47°44' W 003°21'0 0.0
2014-Jul-27 03:33N 47°44' W 003°21'0 0.0
2014-Jul-27 02:33N 47°44' W 003°21'0 0.0
2014-Jul-27 01:30N 47°44' W 003°21'0 0.0
2014-Jul-27 00:33N 47°44' W 003°21'0 0.0
2014-Jul-26 23:33N 47°44' W 003°21'0 0.0
2014-Jul-26 22:33N 47°44' W 003°21'0 0.0
2014-Jul-26 21:33N 47°44' W 003°21'0 0.0
2014-Jul-26 20:33N 47°44' W 003°21'0 0.0
2014-Jul-26 19:33N 47°44' W 003°21'0 0.0
2014-Jul-26 18:33N 47°44' W 003°21'0 0.0
2014-Jul-26 17:33N 47°44' W 003°21'0 0.0
2014-Jul-26 16:33N 47°44' W 003°21'0 0.0
2014-Jul-26 15:33N 47°44' W 003°21'0 0.0
2014-Jul-26 14:33N 47°44' W 003°21'0 0.0
2014-Jul-26 13:33N 47°44' W 003°21'0 0.0
2014-Jul-26 12:33N 47°44' W 003°21'0 0.0
2014-Jul-26 11:33N 47°44' W 003°21'0 0.0
2014-Jul-26 10:33N 47°44' W 003°21'0 0.0
2014-Jul-26 09:33N 47°44' W 003°21'0 0.0
2014-Jul-26 08:33N 47°44' W 003°21'0 0.0
2014-Jul-26 07:33N 47°44' W 003°21'0 0.0
2014-Jul-26 06:33N 47°44' W 003°21'0 0.0
2014-Jul-26 05:33N 47°44' W 003°21'0 0.0
2014-Jul-26 04:33N 47°44' W 003°21'0 0.0
2014-Jul-26 03:33N 47°44' W 003°21'0 0.0
2014-Jul-26 02:33N 47°44' W 003°21'0 0.0
2014-Jul-26 01:33N 47°44' W 003°21'0 0.0
2014-Jul-26 00:33N 47°44' W 003°21'0 0.0
2014-Jul-25 23:33N 47°44' W 003°21'0 0.0
2014-Jul-25 22:33N 47°44' W 003°21'0 0.0
2014-Jul-25 21:33N 47°44' W 003°21'0 0.0
2014-Jul-25 20:33N 47°44' W 003°21'0 0.0
2014-Jul-25 19:33N 47°44' W 003°21'0 0.0
2014-Jul-25 18:32N 47°44' W 003°21'0 0.0
2014-Jul-25 17:32N 47°44' W 003°21'0 0.0
2014-Jul-25 16:32N 47°44' W 003°21'0 0.0
2014-Jul-25 15:32N 47°44' W 003°21'0 0.4
2014-Jul-25 14:33N 47°44' W 003°22'7 6.9
2014-Jul-25 13:33N 47°40' W 003°30'15 7.3
2014-Jul-25 11:33N 47°35' W 003°50'36 7.2
2014-Jul-25 06:32N 47°46' W 004°41'7 6.7
2014-Jul-25 05:32N 47°49' W 004°50'7 7.3
2014-Jul-25 04:33N 47°52' W 004°60'261 8.3
2014-Jul-23 21:18N 50°34' E 000°13'7 9.3
2014-Jul-23 20:33N 50°37' E 000°23'9 8.9
2014-Jul-23 19:33N 50°40' E 000°36'9 9.1
2014-Jul-23 18:33N 50°45' E 000°48'2610.6
2014-Jul-23 16:08N 51°01' E 001°20'711.7
2014-Jul-23 15:33N 51°05' E 001°29'1111.2
2014-Jul-23 14:33N 51°12' E 001°42'10 9.8
2014-Jul-23 13:33N 51°20' E 001°52'9 8.8
2014-Jul-23 12:33N 51°27' E 001°60'8 8.3
2014-Jul-23 11:33N 51°33' E 002°08'8 8.3
2014-Jul-23 10:32N 51°40' E 002°18'40 9.1
2014-Jul-23 06:08N 52°02' E 003°11'1010.1
2014-Jul-23 05:10N 52°02' E 003°27'610.0
2014-Jul-23 04:33N 52°03' E 003°37'9 8.8
2014-Jul-23 03:33N 52°02' E 003°52'8 8.5
2014-Jul-23 02:33N 51°59' E 004°04'5 5.1
2014-Jul-23 01:32N 51°56' E 004°11'0 0.0
2014-Jul-23 00:32N 51°56' E 004°11'0 0.0
2014-Jul-22 23:29N 51°56' E 004°11'0 0.0
2014-Jul-22 22:32N 51°56' E 004°11'0 0.1
2014-Jul-22 21:26N 51°56' E 004°11'0 0.0
2014-Jul-22 15:05N 51°56' E 004°11'0 0.0
2014-Jul-22 14:20N 51°56' E 004°11'0 0.0
2014-Jul-22 13:29N 51°56' E 004°11'0 0.0
2014-Jul-22 12:23N 51°56' E 004°11'0 0.0
2014-Jul-22 11:32N 51°56' E 004°11'0 0.0
2014-Jul-22 10:29N 51°56' E 004°11'0 0.0
2014-Jul-22 09:29N 51°56' E 004°11'0 0.0
2014-Jul-22 08:32N 51°56' E 004°11'0 0.0
2014-Jul-22 07:20N 51°56' E 004°11'0 0.0
2014-Jul-22 06:20N 51°56' E 004°11'0 0.0
2014-Jul-22 05:32N 51°56' E 004°11'0 0.0
2014-Jul-22 04:26N 51°56' E 004°11'0 0.0
2014-Jul-22 03:28N 51°56' E 004°11'0 0.0
2014-Jul-22 02:25N 51°56' E 004°11'0 0.0
2014-Jul-22 01:19N 51°56' E 004°11'0 0.0
2014-Jul-22 00:31N 51°56' E 004°11'0 0.0
2014-Jul-21 23:31N 51°56' E 004°11'0 0.0
2014-Jul-21 22:31N 51°56' E 004°11'0 0.0
2014-Jul-21 21:13N 51°56' E 004°11'0 0.0
2014-Jul-21 19:31N 51°56' E 004°11'0 0.0
2014-Jul-21 18:16N 51°56' E 004°11'0 0.0
2014-Jul-21 17:04N 51°56' E 004°11'0 0.0
2014-Jul-21 08:28N 51°56' E 004°11'0 0.0
2014-Jul-21 07:10N 51°56' E 004°11'0 0.0
2014-Jul-21 06:10N 51°56' E 004°11'0 0.0
2014-Jul-21 05:31N 51°56' E 004°11'0 0.0
2014-Jul-21 04:07N 51°56' E 004°11'0 0.0
2014-Jul-21 03:22N 51°56' E 004°11'0 0.0
2014-Jul-21 02:22N 51°56' E 004°11'0 0.0
2014-Jul-21 01:04N 51°56' E 004°11'0 0.0
2014-Jul-21 00:22N 51°56' E 004°11'0 0.0
2014-Jul-20 22:16N 51°56' E 004°11'0 0.0
2014-Jul-20 18:31N 51°56' E 004°11'0 0.0
2014-Jul-20 17:24N 51°56' E 004°11'0 0.0
2014-Jul-20 14:18N 51°56' E 004°11'0 0.0
2014-Jul-20 13:15N 51°56' E 004°11'0 0.0
2014-Jul-20 12:03N 51°56' E 004°11'0 0.0
2014-Jul-20 11:03N 51°56' E 004°11'0 0.0
2014-Jul-20 10:27N 51°56' E 004°11'0 0.0
2014-Jul-20 09:06N 51°56' E 004°11'0 0.0
2014-Jul-20 07:18N 51°56' E 004°11'0 0.0
2014-Jul-20 06:33N 51°56' E 004°11'0 0.0
2014-Jul-20 05:30N 51°56' E 004°11'0 0.0
2014-Jul-20 04:24N 51°56' E 004°11'0 0.0
2014-Jul-20 02:27N 51°56' E 004°11'0 0.0
2014-Jul-20 01:30N 51°56' E 004°11'0 0.0
2014-Jul-20 00:27N 51°56' E 004°11'0 0.0
2014-Jul-19 22:30N 51°56' E 004°11'  

Dump ship's entire track history